sensor_id;sensor_type;location;lat;lon;timestamp;temperature;humidity
22288;DHT22;11312;51.464;6.968;2024-01-25T00:01:49;9.00;99.90
22288;DHT22;11312;51.464;6.968;2024-01-25T00:04:15;9.20;99.90
22288;DHT22;11312;51.464;6.968;2024-01-25T00:06:40;9.00;99.90
22288;DHT22;11312;51.464;6.968;2024-01-25T00:09:06;9.10;99.90
22288;DHT22;11312;51.464;6.968;2024-01-25T00:11:31;9.10;99.90
22288;DHT22;11312;51.464;6.968;2024-01-25T00:13:58;9.00;99.90
22288;DHT22;11312;51.464;6.968;2024-01-25T00:16:23;9.00;99.90
22288;DHT22;11312;51.464;6.968;2024-01-25T00:18:49;9.00;99.90
22288;DHT22;11312;51.464;6.968;2024-01-25T00:21:14;9.00;99.90
22288;DHT22;11312;51.464;6.968;2024-01-25T00:23:41;9.00;99.90
22288;DHT22;11312;51.464;6.968;2024-01-25T00:26:07;9.00;99.90
22288;DHT22;11312;51.464;6.968;2024-01-25T00:28:33;9.00;99.90
22288;DHT22;11312;51.464;6.968;2024-01-25T00:30:59;9.00;99.90
22288;DHT22;11312;51.464;6.968;2024-01-25T00:33:24;9.10;99.90
22288;DHT22;11312;51.464;6.968;2024-01-25T00:35:50;9.10;99.90
22288;DHT22;11312;51.464;6.968;2024-01-25T00:38:16;9.10;99.90
22288;DHT22;11312;51.464;6.968;2024-01-25T00:40:42;9.20;99.90
22288;DHT22;11312;51.464;6.968;2024-01-25T00:43:08;9.10;99.90
22288;DHT22;11312;51.464;6.968;2024-01-25T00:45:34;9.00;99.90
22288;DHT22;11312;51.464;6.968;2024-01-25T00:48:00;9.10;99.90
22288;DHT22;11312;51.464;6.968;2024-01-25T00:50:26;9.00;99.90
22288;DHT22;11312;51.464;6.968;2024-01-25T00:52:52;8.90;99.90
22288;DHT22;11312;51.464;6.968;2024-01-25T00:55:18;8.80;99.90
22288;DHT22;11312;51.464;6.968;2024-01-25T00:57:44;8.80;99.90
22288;DHT22;11312;51.464;6.968;2024-01-25T01:00:10;8.60;99.90
22288;DHT22;11312;51.464;6.968;2024-01-25T01:02:39;8.70;99.90
22288;DHT22;11312;51.464;6.968;2024-01-25T01:05:06;8.60;99.90
22288;DHT22;11312;51.464;6.968;2024-01-25T01:07:32;8.60;99.90
22288;DHT22;11312;51.464;6.968;2024-01-25T01:09:58;8.50;99.90
22288;DHT22;11312;51.464;6.968;2024-01-25T01:12:23;8.40;99.90
22288;DHT22;11312;51.464;6.968;2024-01-25T01:14:49;8.40;99.90
22288;DHT22;11312;51.464;6.968;2024-01-25T01:17:15;8.40;99.90
22288;DHT22;11312;51.464;6.968;2024-01-25T01:19:40;8.40;99.90
22288;DHT22;11312;51.464;6.968;2024-01-25T01:22:06;8.30;99.90
22288;DHT22;11312;51.464;6.968;2024-01-25T01:24:32;8.30;99.90
22288;DHT22;11312;51.464;6.968;2024-01-25T01:26:57;8.40;99.90
22288;DHT22;11312;51.464;6.968;2024-01-25T01:29:24;8.20;99.90
22288;DHT22;11312;51.464;6.968;2024-01-25T01:31:50;8.20;99.90
22288;DHT22;11312;51.464;6.968;2024-01-25T01:34:15;8.20;99.90
22288;DHT22;11312;51.464;6.968;2024-01-25T01:36:43;8.30;99.90
22288;DHT22;11312;51.464;6.968;2024-01-25T01:39:09;8.20;99.90
22288;DHT22;11312;51.464;6.968;2024-01-25T01:41:35;8.10;99.90
22288;DHT22;11312;51.464;6.968;2024-01-25T01:44:00;8.20;99.90
22288;DHT22;11312;51.464;6.968;2024-01-25T01:46:37;8.20;99.90
22288;DHT22;11312;51.464;6.968;2024-01-25T01:49:06;8.20;99.90
22288;DHT22;11312;51.464;6.968;2024-01-25T01:51:33;8.20;99.90
22288;DHT22;11312;51.464;6.968;2024-01-25T01:54:00;8.30;99.90
22288;DHT22;11312;51.464;6.968;2024-01-25T01:56:28;8.30;99.90
22288;DHT22;11312;51.464;6.968;2024-01-25T01:59:00;8.30;99.90
22288;DHT22;11312;51.464;6.968;2024-01-25T02:01:27;8.40;99.90
22288;DHT22;11312;51.464;6.968;2024-01-25T02:03:53;8.40;99.90
22288;DHT22;11312;51.464;6.968;2024-01-25T02:06:19;8.50;99.90
22288;DHT22;11312;51.464;6.968;2024-01-25T02:08:46;8.50;99.90
22288;DHT22;11312;51.464;6.968;2024-01-25T02:11:14;8.60;99.90
22288;DHT22;11312;51.464;6.968;2024-01-25T02:13:40;8.40;99.90
22288;DHT22;11312;51.464;6.968;2024-01-25T02:16:07;8.50;99.90
22288;DHT22;11312;51.464;6.968;2024-01-25T02:18:34;8.50;99.90
22288;DHT22;11312;51.464;6.968;2024-01-25T02:20:59;8.40;99.90
22288;DHT22;11312;51.464;6.968;2024-01-25T02:23:25;8.50;99.90
22288;DHT22;11312;51.464;6.968;2024-01-25T02:25:50;8.50;99.90
22288;DHT22;11312;51.464;6.968;2024-01-25T02:28:16;8.40;99.90
22288;DHT22;11312;51.464;6.968;2024-01-25T02:30:42;8.50;99.90
22288;DHT22;11312;51.464;6.968;2024-01-25T02:33:07;8.50;99.90
22288;DHT22;11312;51.464;6.968;2024-01-25T02:35:33;8.50;99.90
22288;DHT22;11312;51.464;6.968;2024-01-25T02:37:59;8.30;99.90
22288;DHT22;11312;51.464;6.968;2024-01-25T02:40:24;8.30;99.90
22288;DHT22;11312;51.464;6.968;2024-01-25T02:42:50;8.10;99.90
22288;DHT22;11312;51.464;6.968;2024-01-25T02:45:16;8.20;99.90
22288;DHT22;11312;51.464;6.968;2024-01-25T02:47:41;8.10;99.90
22288;DHT22;11312;51.464;6.968;2024-01-25T02:50:07;7.90;99.90
22288;DHT22;11312;51.464;6.968;2024-01-25T02:52:33;8.00;99.90
22288;DHT22;11312;51.464;6.968;2024-01-25T02:54:59;7.90;99.90
22288;DHT22;11312;51.464;6.968;2024-01-25T02:57:25;7.90;99.90
22288;DHT22;11312;51.464;6.968;2024-01-25T02:59:51;7.80;99.90
22288;DHT22;11312;51.464;6.968;2024-01-25T03:02:16;7.80;99.90
22288;DHT22;11312;51.464;6.968;2024-01-25T03:04:45;7.70;99.90
22288;DHT22;11312;51.464;6.968;2024-01-25T03:07:10;7.70;99.90
22288;DHT22;11312;51.464;6.968;2024-01-25T03:09:36;7.60;99.90
22288;DHT22;11312;51.464;6.968;2024-01-25T03:12:02;7.60;99.90
22288;DHT22;11312;51.464;6.968;2024-01-25T03:14:27;7.70;99.90
22288;DHT22;11312;51.464;6.968;2024-01-25T03:16:53;7.70;99.90
22288;DHT22;11312;51.464;6.968;2024-01-25T03:19:19;7.70;99.90
22288;DHT22;11312;51.464;6.968;2024-01-25T03:21:44;7.70;99.90
22288;DHT22;11312;51.464;6.968;2024-01-25T03:24:10;7.50;99.90
22288;DHT22;11312;51.464;6.968;2024-01-25T03:26:35;7.60;99.90
22288;DHT22;11312;51.464;6.968;2024-01-25T03:29:01;7.60;99.90
22288;DHT22;11312;51.464;6.968;2024-01-25T03:31:26;7.30;99.90
22288;DHT22;11312;51.464;6.968;2024-01-25T03:33:52;7.40;99.90
22288;DHT22;11312;51.464;6.968;2024-01-25T03:36:18;7.60;99.90
22288;DHT22;11312;51.464;6.968;2024-01-25T03:38:43;7.50;99.90
22288;DHT22;11312;51.464;6.968;2024-01-25T03:41:09;7.50;99.90
22288;DHT22;11312;51.464;6.968;2024-01-25T03:43:35;7.50;99.90
22288;DHT22;11312;51.464;6.968;2024-01-25T03:46:01;7.40;99.90
22288;DHT22;11312;51.464;6.968;2024-01-25T03:48:28;7.40;99.90
22288;DHT22;11312;51.464;6.968;2024-01-25T03:50:54;7.50;99.90
22288;DHT22;11312;51.464;6.968;2024-01-25T03:53:23;7.60;99.90
22288;DHT22;11312;51.464;6.968;2024-01-25T03:55:48;7.60;99.90
22288;DHT22;11312;51.464;6.968;2024-01-25T03:58:15;7.50;99.90
22288;DHT22;11312;51.464;6.968;2024-01-25T04:00:40;7.50;99.90
22288;DHT22;11312;51.464;6.968;2024-01-25T04:03:06;7.50;99.90
22288;DHT22;11312;51.464;6.968;2024-01-25T04:05:31;7.40;99.90
22288;DHT22;11312;51.464;6.968;2024-01-25T04:07:57;7.40;99.90
22288;DHT22;11312;51.464;6.968;2024-01-25T04:10:22;7.40;99.90
22288;DHT22;11312;51.464;6.968;2024-01-25T04:12:48;7.30;99.90
22288;DHT22;11312;51.464;6.968;2024-01-25T04:15:14;7.30;99.90
22288;DHT22;11312;51.464;6.968;2024-01-25T04:17:39;7.10;99.90
22288;DHT22;11312;51.464;6.968;2024-01-25T04:20:05;7.10;99.90
22288;DHT22;11312;51.464;6.968;2024-01-25T04:22:31;7.10;99.90
22288;DHT22;11312;51.464;6.968;2024-01-25T04:24:57;7.00;99.90
22288;DHT22;11312;51.464;6.968;2024-01-25T04:27:22;6.90;99.90
22288;DHT22;11312;51.464;6.968;2024-01-25T04:29:48;6.70;99.90
22288;DHT22;11312;51.464;6.968;2024-01-25T04:32:13;6.80;99.90
22288;DHT22;11312;51.464;6.968;2024-01-25T04:34:39;6.80;99.90
22288;DHT22;11312;51.464;6.968;2024-01-25T04:37:05;6.60;99.90
22288;DHT22;11312;51.464;6.968;2024-01-25T04:39:30;6.50;99.90
22288;DHT22;11312;51.464;6.968;2024-01-25T04:41:56;6.70;99.90
22288;DHT22;11312;51.464;6.968;2024-01-25T04:44:21;6.80;99.90
22288;DHT22;11312;51.464;6.968;2024-01-25T04:46:47;6.80;99.90
22288;DHT22;11312;51.464;6.968;2024-01-25T04:49:12;6.90;99.90
22288;DHT22;11312;51.464;6.968;2024-01-25T04:51:38;7.00;99.90
22288;DHT22;11312;51.464;6.968;2024-01-25T04:54:04;6.90;99.90
22288;DHT22;11312;51.464;6.968;2024-01-25T04:56:29;6.80;99.90
22288;DHT22;11312;51.464;6.968;2024-01-25T04:58:55;6.90;99.90
22288;DHT22;11312;51.464;6.968;2024-01-25T05:01:20;6.80;99.90
22288;DHT22;11312;51.464;6.968;2024-01-25T05:03:46;6.80;99.90
22288;DHT22;11312;51.464;6.968;2024-01-25T05:06:12;6.70;99.90
22288;DHT22;11312;51.464;6.968;2024-01-25T05:08:38;6.80;99.90
22288;DHT22;11312;51.464;6.968;2024-01-25T05:11:04;6.90;99.90
22288;DHT22;11312;51.464;6.968;2024-01-25T05:13:29;6.80;99.90
22288;DHT22;11312;51.464;6.968;2024-01-25T05:15:55;6.60;99.90
22288;DHT22;11312;51.464;6.968;2024-01-25T05:18:21;6.40;99.90
22288;DHT22;11312;51.464;6.968;2024-01-25T05:20:46;6.60;99.90
22288;DHT22;11312;51.464;6.968;2024-01-25T05:23:12;6.70;99.90
22288;DHT22;11312;51.464;6.968;2024-01-25T05:25:37;6.50;99.90
22288;DHT22;11312;51.464;6.968;2024-01-25T05:28:03;6.50;99.90
22288;DHT22;11312;51.464;6.968;2024-01-25T05:30:29;6.50;99.90
22288;DHT22;11312;51.464;6.968;2024-01-25T05:32:55;6.60;99.90
22288;DHT22;11312;51.464;6.968;2024-01-25T05:35:21;6.60;99.90
22288;DHT22;11312;51.464;6.968;2024-01-25T05:37:46;6.70;99.90
22288;DHT22;11312;51.464;6.968;2024-01-25T05:40:12;6.60;99.90
22288;DHT22;11312;51.464;6.968;2024-01-25T05:42:38;6.60;99.90
22288;DHT22;11312;51.464;6.968;2024-01-25T05:45:04;6.60;99.90
22288;DHT22;11312;51.464;6.968;2024-01-25T05:47:30;6.50;99.90
22288;DHT22;11312;51.464;6.968;2024-01-25T05:49:57;6.50;99.90
22288;DHT22;11312;51.464;6.968;2024-01-25T05:52:23;6.60;99.90
22288;DHT22;11312;51.464;6.968;2024-01-25T05:54:49;6.60;99.90
22288;DHT22;11312;51.464;6.968;2024-01-25T05:57:15;6.50;99.90
22288;DHT22;11312;51.464;6.968;2024-01-25T05:59:42;6.50;99.90
22288;DHT22;11312;51.464;6.968;2024-01-25T06:02:08;6.50;99.90
22288;DHT22;11312;51.464;6.968;2024-01-25T06:04:34;6.40;99.90
22288;DHT22;11312;51.464;6.968;2024-01-25T06:07:00;6.40;99.90
22288;DHT22;11312;51.464;6.968;2024-01-25T06:09:25;6.30;99.90
22288;DHT22;11312;51.464;6.968;2024-01-25T06:11:51;6.40;99.90
22288;DHT22;11312;51.464;6.968;2024-01-25T06:14:17;6.20;99.90
22288;DHT22;11312;51.464;6.968;2024-01-25T06:16:43;6.10;99.90
22288;DHT22;11312;51.464;6.968;2024-01-25T06:19:10;6.00;99.90
22288;DHT22;11312;51.464;6.968;2024-01-25T06:21:36;6.10;99.90
22288;DHT22;11312;51.464;6.968;2024-01-25T06:24:03;5.90;99.90
22288;DHT22;11312;51.464;6.968;2024-01-25T06:26:30;6.00;99.90
22288;DHT22;11312;51.464;6.968;2024-01-25T06:28:55;5.80;99.90
22288;DHT22;11312;51.464;6.968;2024-01-25T06:31:22;5.80;99.90
22288;DHT22;11312;51.464;6.968;2024-01-25T06:33:48;5.90;99.90
22288;DHT22;11312;51.464;6.968;2024-01-25T06:36:16;5.80;99.90
22288;DHT22;11312;51.464;6.968;2024-01-25T06:38:41;5.90;99.90
22288;DHT22;11312;51.464;6.968;2024-01-25T06:41:08;6.00;99.90
22288;DHT22;11312;51.464;6.968;2024-01-25T06:43:33;6.00;99.90
22288;DHT22;11312;51.464;6.968;2024-01-25T06:45:59;5.90;99.90
22288;DHT22;11312;51.464;6.968;2024-01-25T06:48:25;5.90;99.90
22288;DHT22;11312;51.464;6.968;2024-01-25T06:50:50;5.90;99.90
22288;DHT22;11312;51.464;6.968;2024-01-25T06:53:16;5.70;99.90
22288;DHT22;11312;51.464;6.968;2024-01-25T06:55:42;5.70;99.90
22288;DHT22;11312;51.464;6.968;2024-01-25T06:58:08;5.70;99.90
22288;DHT22;11312;51.464;6.968;2024-01-25T07:00:33;5.60;99.90
22288;DHT22;11312;51.464;6.968;2024-01-25T07:02:59;5.70;99.90
22288;DHT22;11312;51.464;6.968;2024-01-25T07:05:25;5.70;99.90
22288;DHT22;11312;51.464;6.968;2024-01-25T07:07:52;5.80;99.90
22288;DHT22;11312;51.464;6.968;2024-01-25T07:10:17;5.70;99.90
22288;DHT22;11312;51.464;6.968;2024-01-25T07:12:43;5.60;99.90
22288;DHT22;11312;51.464;6.968;2024-01-25T07:15:09;5.50;99.90
22288;DHT22;11312;51.464;6.968;2024-01-25T07:17:35;5.70;99.90
22288;DHT22;11312;51.464;6.968;2024-01-25T07:20:00;5.80;99.90
22288;DHT22;11312;51.464;6.968;2024-01-25T07:22:26;5.60;99.90
22288;DHT22;11312;51.464;6.968;2024-01-25T07:24:51;5.50;99.90
22288;DHT22;11312;51.464;6.968;2024-01-25T07:27:17;5.40;99.90
22288;DHT22;11312;51.464;6.968;2024-01-25T07:29:45;5.50;99.90
22288;DHT22;11312;51.464;6.968;2024-01-25T07:32:12;5.70;99.90
22288;DHT22;11312;51.464;6.968;2024-01-25T07:34:37;5.90;99.90
22288;DHT22;11312;51.464;6.968;2024-01-25T07:37:04;5.70;99.90
22288;DHT22;11312;51.464;6.968;2024-01-25T07:39:29;5.70;99.90
22288;DHT22;11312;51.464;6.968;2024-01-25T07:41:55;5.50;99.90
22288;DHT22;11312;51.464;6.968;2024-01-25T07:44:20;5.50;99.90
22288;DHT22;11312;51.464;6.968;2024-01-25T07:46:46;5.50;99.90
22288;DHT22;11312;51.464;6.968;2024-01-25T07:49:12;5.50;99.90
22288;DHT22;11312;51.464;6.968;2024-01-25T07:51:38;5.50;99.90
22288;DHT22;11312;51.464;6.968;2024-01-25T07:54:03;5.50;99.90
22288;DHT22;11312;51.464;6.968;2024-01-25T07:56:29;5.50;99.90
22288;DHT22;11312;51.464;6.968;2024-01-25T07:58:55;5.50;99.90
22288;DHT22;11312;51.464;6.968;2024-01-25T08:01:21;5.50;99.90
22288;DHT22;11312;51.464;6.968;2024-01-25T08:03:47;5.50;99.90
22288;DHT22;11312;51.464;6.968;2024-01-25T08:06:12;5.60;99.90
22288;DHT22;11312;51.464;6.968;2024-01-25T08:08:38;5.70;99.90
22288;DHT22;11312;51.464;6.968;2024-01-25T08:11:04;5.70;99.90
22288;DHT22;11312;51.464;6.968;2024-01-25T08:13:30;5.60;99.90
22288;DHT22;11312;51.464;6.968;2024-01-25T08:15:57;5.70;99.90
22288;DHT22;11312;51.464;6.968;2024-01-25T08:18:22;5.70;99.90
22288;DHT22;11312;51.464;6.968;2024-01-25T08:20:49;5.60;99.90
22288;DHT22;11312;51.464;6.968;2024-01-25T08:23:16;5.80;99.90
22288;DHT22;11312;51.464;6.968;2024-01-25T08:25:42;5.90;99.90
22288;DHT22;11312;51.464;6.968;2024-01-25T08:28:07;5.70;99.90
22288;DHT22;11312;51.464;6.968;2024-01-25T08:30:33;5.60;99.90
22288;DHT22;11312;51.464;6.968;2024-01-25T08:32:59;5.70;99.90
22288;DHT22;11312;51.464;6.968;2024-01-25T08:35:25;5.60;99.90
22288;DHT22;11312;51.464;6.968;2024-01-25T08:37:50;5.70;99.90
22288;DHT22;11312;51.464;6.968;2024-01-25T08:40:17;5.70;99.90
22288;DHT22;11312;51.464;6.968;2024-01-25T08:42:42;5.70;99.90
22288;DHT22;11312;51.464;6.968;2024-01-25T08:45:08;5.70;99.90
22288;DHT22;11312;51.464;6.968;2024-01-25T08:47:37;5.70;99.90
22288;DHT22;11312;51.464;6.968;2024-01-25T08:50:03;5.70;99.90
22288;DHT22;11312;51.464;6.968;2024-01-25T08:52:29;5.80;99.90
22288;DHT22;11312;51.464;6.968;2024-01-25T08:54:55;5.90;99.90
22288;DHT22;11312;51.464;6.968;2024-01-25T08:57:20;5.80;99.90
22288;DHT22;11312;51.464;6.968;2024-01-25T08:59:46;5.90;99.90
22288;DHT22;11312;51.464;6.968;2024-01-25T09:02:11;5.90;99.90
22288;DHT22;11312;51.464;6.968;2024-01-25T09:04:37;5.90;99.90
22288;DHT22;11312;51.464;6.968;2024-01-25T09:07:03;6.10;99.90
22288;DHT22;11312;51.464;6.968;2024-01-25T09:09:29;6.00;99.90
22288;DHT22;11312;51.464;6.968;2024-01-25T09:11:54;6.20;99.90
22288;DHT22;11312;51.464;6.968;2024-01-25T09:14:21;6.30;99.90
22288;DHT22;11312;51.464;6.968;2024-01-25T09:16:46;6.40;99.90
22288;DHT22;11312;51.464;6.968;2024-01-25T09:19:12;6.30;99.90
22288;DHT22;11312;51.464;6.968;2024-01-25T09:21:41;6.20;99.90
22288;DHT22;11312;51.464;6.968;2024-01-25T09:24:06;6.30;99.90
22288;DHT22;11312;51.464;6.968;2024-01-25T09:26:32;6.30;99.90
22288;DHT22;11312;51.464;6.968;2024-01-25T09:28:59;6.30;99.90
22288;DHT22;11312;51.464;6.968;2024-01-25T09:31:25;6.60;99.90
22288;DHT22;11312;51.464;6.968;2024-01-25T09:33:51;6.50;99.90
22288;DHT22;11312;51.464;6.968;2024-01-25T09:36:17;6.70;99.90
22288;DHT22;11312;51.464;6.968;2024-01-25T09:38:42;6.70;99.90
22288;DHT22;11312;51.464;6.968;2024-01-25T09:41:08;6.60;99.90
22288;DHT22;11312;51.464;6.968;2024-01-25T09:43:34;6.60;99.90
22288;DHT22;11312;51.464;6.968;2024-01-25T09:46:01;6.70;99.90
22288;DHT22;11312;51.464;6.968;2024-01-25T09:48:27;6.90;99.90
22288;DHT22;11312;51.464;6.968;2024-01-25T09:50:55;7.00;99.90
22288;DHT22;11312;51.464;6.968;2024-01-25T09:53:22;6.90;99.90
22288;DHT22;11312;51.464;6.968;2024-01-25T09:56:00;6.90;99.90
22288;DHT22;11312;51.464;6.968;2024-01-25T09:58:39;6.90;99.90
22288;DHT22;11312;51.464;6.968;2024-01-25T10:01:08;7.00;99.90
22288;DHT22;11312;51.464;6.968;2024-01-25T10:03:34;7.40;99.90
22288;DHT22;11312;51.464;6.968;2024-01-25T10:06:00;7.50;99.90
22288;DHT22;11312;51.464;6.968;2024-01-25T10:08:26;8.20;99.90
22288;DHT22;11312;51.464;6.968;2024-01-25T10:10:51;9.40;99.90
22288;DHT22;11312;51.464;6.968;2024-01-25T10:13:19;10.70;99.90
22288;DHT22;11312;51.464;6.968;2024-01-25T10:15:45;9.70;99.90
22288;DHT22;11312;51.464;6.968;2024-01-25T10:18:13;11.00;99.90
22288;DHT22;11312;51.464;6.968;2024-01-25T10:20:39;10.00;99.90
22288;DHT22;11312;51.464;6.968;2024-01-25T10:23:06;9.70;99.90
22288;DHT22;11312;51.464;6.968;2024-01-25T10:25:37;9.10;99.90
22288;DHT22;11312;51.464;6.968;2024-01-25T10:28:07;8.50;99.90
22288;DHT22;11312;51.464;6.968;2024-01-25T10:30:34;8.00;99.90
22288;DHT22;11312;51.464;6.968;2024-01-25T10:33:01;7.80;99.90
22288;DHT22;11312;51.464;6.968;2024-01-25T10:35:27;7.60;99.90
22288;DHT22;11312;51.464;6.968;2024-01-25T10:37:53;7.70;99.90
22288;DHT22;11312;51.464;6.968;2024-01-25T10:40:20;7.70;99.90
22288;DHT22;11312;51.464;6.968;2024-01-25T10:42:46;7.70;99.90
22288;DHT22;11312;51.464;6.968;2024-01-25T10:45:12;7.70;99.90
22288;DHT22;11312;51.464;6.968;2024-01-25T10:47:38;7.80;99.90
22288;DHT22;11312;51.464;6.968;2024-01-25T10:50:07;7.90;99.90
22288;DHT22;11312;51.464;6.968;2024-01-25T10:52:37;8.30;99.90
22288;DHT22;11312;51.464;6.968;2024-01-25T10:55:03;8.20;99.90
22288;DHT22;11312;51.464;6.968;2024-01-25T10:57:37;8.30;99.90
22288;DHT22;11312;51.464;6.968;2024-01-25T11:00:06;7.90;99.90
22288;DHT22;11312;51.464;6.968;2024-01-25T11:02:37;7.90;99.90
22288;DHT22;11312;51.464;6.968;2024-01-25T11:05:23;8.20;99.90
22288;DHT22;11312;51.464;6.968;2024-01-25T11:07:50;8.30;99.90
22288;DHT22;11312;51.464;6.968;2024-01-25T11:10:20;8.80;99.90
22288;DHT22;11312;51.464;6.968;2024-01-25T11:15:29;9.60;99.90
22288;DHT22;11312;51.464;6.968;2024-01-25T11:17:56;9.30;99.90
22288;DHT22;11312;51.464;6.968;2024-01-25T11:20:27;9.80;99.90
22288;DHT22;11312;51.464;6.968;2024-01-25T11:22:57;10.10;99.90
22288;DHT22;11312;51.464;6.968;2024-01-25T11:25:36;10.20;1.00
22288;DHT22;11312;51.464;6.968;2024-01-25T11:28:04;9.90;1.00
22288;DHT22;11312;51.464;6.968;2024-01-25T11:30:34;9.90;1.00
22288;DHT22;11312;51.464;6.968;2024-01-25T11:33:03;9.90;1.00
22288;DHT22;11312;51.464;6.968;2024-01-25T11:35:29;9.90;99.90
22288;DHT22;11312;51.464;6.968;2024-01-25T11:37:55;10.10;1.00
22288;DHT22;11312;51.464;6.968;2024-01-25T11:40:20;10.20;1.00
22288;DHT22;11312;51.464;6.968;2024-01-25T11:42:50;9.80;99.90
22288;DHT22;11312;51.464;6.968;2024-01-25T11:45:16;10.30;99.90
22288;DHT22;11312;51.464;6.968;2024-01-25T11:47:43;10.40;1.00
22288;DHT22;11312;51.464;6.968;2024-01-25T11:50:10;10.80;99.90
22288;DHT22;11312;51.464;6.968;2024-01-25T11:52:37;10.90;1.00
22288;DHT22;11312;51.464;6.968;2024-01-25T11:55:04;11.00;1.00
22288;DHT22;11312;51.464;6.968;2024-01-25T11:57:32;10.80;1.00
22288;DHT22;11312;51.464;6.968;2024-01-25T11:59:59;10.40;1.00
22288;DHT22;11312;51.464;6.968;2024-01-25T12:02:26;9.80;1.00
22288;DHT22;11312;51.464;6.968;2024-01-25T12:04:52;9.70;99.90
22288;DHT22;11312;51.464;6.968;2024-01-25T12:07:20;9.30;99.90
22288;DHT22;11312;51.464;6.968;2024-01-25T12:09:57;8.90;99.90
22288;DHT22;11312;51.464;6.968;2024-01-25T12:12:23;8.90;1.00
22288;DHT22;11312;51.464;6.968;2024-01-25T12:14:48;8.80;1.00
22288;DHT22;11312;51.464;6.968;2024-01-25T12:17:14;8.70;1.00
22288;DHT22;11312;51.464;6.968;2024-01-25T12:19:39;8.90;1.00
22288;DHT22;11312;51.464;6.968;2024-01-25T12:22:05;8.90;1.00
22288;DHT22;11312;51.464;6.968;2024-01-25T12:24:31;9.10;1.00
22288;DHT22;11312;51.464;6.968;2024-01-25T12:26:56;9.20;1.00
22288;DHT22;11312;51.464;6.968;2024-01-25T12:29:22;9.40;1.00
22288;DHT22;11312;51.464;6.968;2024-01-25T12:31:48;9.60;1.00
22288;DHT22;11312;51.464;6.968;2024-01-25T12:34:14;9.70;1.00
22288;DHT22;11312;51.464;6.968;2024-01-25T12:36:43;9.60;1.00
22288;DHT22;11312;51.464;6.968;2024-01-25T12:39:09;9.50;1.00
22288;DHT22;11312;51.464;6.968;2024-01-25T12:41:36;9.50;1.00
22288;DHT22;11312;51.464;6.968;2024-01-25T12:44:02;9.60;1.00
22288;DHT22;11312;51.464;6.968;2024-01-25T12:46:27;9.30;1.00
22288;DHT22;11312;51.464;6.968;2024-01-25T12:48:53;9.20;1.00
22288;DHT22;11312;51.464;6.968;2024-01-25T12:51:21;9.30;1.00
22288;DHT22;11312;51.464;6.968;2024-01-25T12:53:48;9.10;1.00
22288;DHT22;11312;51.464;6.968;2024-01-25T12:56:14;8.90;1.00
22288;DHT22;11312;51.464;6.968;2024-01-25T12:58:39;9.00;1.00
22288;DHT22;11312;51.464;6.968;2024-01-25T13:01:05;9.10;1.00
22288;DHT22;11312;51.464;6.968;2024-01-25T13:03:31;9.00;1.00
22288;DHT22;11312;51.464;6.968;2024-01-25T13:05:56;9.20;1.00
22288;DHT22;11312;51.464;6.968;2024-01-25T13:08:22;9.20;1.00
22288;DHT22;11312;51.464;6.968;2024-01-25T13:10:47;8.90;1.00
22288;DHT22;11312;51.464;6.968;2024-01-25T13:13:13;9.10;1.00
22288;DHT22;11312;51.464;6.968;2024-01-25T13:15:38;9.10;1.00
22288;DHT22;11312;51.464;6.968;2024-01-25T13:18:04;9.10;1.00
22288;DHT22;11312;51.464;6.968;2024-01-25T13:20:30;9.00;1.00
22288;DHT22;11312;51.464;6.968;2024-01-25T13:22:55;9.10;99.90
22288;DHT22;11312;51.464;6.968;2024-01-25T13:25:21;9.00;99.90
22288;DHT22;11312;51.464;6.968;2024-01-25T13:27:47;10.10;99.90
22288;DHT22;11312;51.464;6.968;2024-01-25T13:30:12;8.80;1.00
22288;DHT22;11312;51.464;6.968;2024-01-25T13:32:39;8.70;1.00
22288;DHT22;11312;51.464;6.968;2024-01-25T13:35:05;8.70;1.00
22288;DHT22;11312;51.464;6.968;2024-01-25T13:37:30;8.70;1.00
22288;DHT22;11312;51.464;6.968;2024-01-25T13:39:56;8.60;1.00
22288;DHT22;11312;51.464;6.968;2024-01-25T13:42:21;8.60;1.00
22288;DHT22;11312;51.464;6.968;2024-01-25T13:44:47;8.50;1.00
22288;DHT22;11312;51.464;6.968;2024-01-25T13:47:13;8.60;1.00
22288;DHT22;11312;51.464;6.968;2024-01-25T13:49:38;8.60;1.00
22288;DHT22;11312;51.464;6.968;2024-01-25T13:52:04;8.70;1.00
22288;DHT22;11312;51.464;6.968;2024-01-25T13:54:30;8.70;1.00
22288;DHT22;11312;51.464;6.968;2024-01-25T13:56:55;8.70;1.00
22288;DHT22;11312;51.464;6.968;2024-01-25T13:59:21;8.60;1.00
22288;DHT22;11312;51.464;6.968;2024-01-25T14:01:47;8.80;1.00
22288;DHT22;11312;51.464;6.968;2024-01-25T14:04:12;8.60;1.00
22288;DHT22;11312;51.464;6.968;2024-01-25T14:06:39;8.70;1.00
22288;DHT22;11312;51.464;6.968;2024-01-25T14:09:04;8.60;1.00
22288;DHT22;11312;51.464;6.968;2024-01-25T14:11:30;9.30;1.00
22288;DHT22;11312;51.464;6.968;2024-01-25T14:13:56;8.80;1.00
22288;DHT22;11312;51.464;6.968;2024-01-25T14:16:22;8.90;1.00
22288;DHT22;11312;51.464;6.968;2024-01-25T14:18:47;8.90;1.00
22288;DHT22;11312;51.464;6.968;2024-01-25T14:21:13;9.20;48.90
22288;DHT22;11312;51.464;6.968;2024-01-25T14:23:39;8.90;1.00
22288;DHT22;11312;51.464;6.968;2024-01-25T14:26:04;8.90;1.00
22288;DHT22;11312;51.464;6.968;2024-01-25T14:28:30;9.00;1.00
22288;DHT22;11312;51.464;6.968;2024-01-25T14:30:56;9.00;1.00
22288;DHT22;11312;51.464;6.968;2024-01-25T14:33:21;9.00;1.00
22288;DHT22;11312;51.464;6.968;2024-01-25T14:35:47;9.10;1.00
22288;DHT22;11312;51.464;6.968;2024-01-25T14:38:13;8.90;1.00
22288;DHT22;11312;51.464;6.968;2024-01-25T14:40:39;9.00;1.00
22288;DHT22;11312;51.464;6.968;2024-01-25T14:43:04;8.80;1.00
22288;DHT22;11312;51.464;6.968;2024-01-25T14:45:30;9.00;1.00
22288;DHT22;11312;51.464;6.968;2024-01-25T14:47:56;8.90;1.00
22288;DHT22;11312;51.464;6.968;2024-01-25T14:50:23;9.00;1.00
22288;DHT22;11312;51.464;6.968;2024-01-25T14:52:48;8.80;1.00
22288;DHT22;11312;51.464;6.968;2024-01-25T14:55:14;8.90;1.00
22288;DHT22;11312;51.464;6.968;2024-01-25T14:57:40;8.90;1.00
22288;DHT22;11312;51.464;6.968;2024-01-25T15:00:06;8.90;6.20
22288;DHT22;11312;51.464;6.968;2024-01-25T15:02:33;8.80;1.00
22288;DHT22;11312;51.464;6.968;2024-01-25T15:04:59;8.90;1.00
22288;DHT22;11312;51.464;6.968;2024-01-25T15:07:24;8.90;1.00
22288;DHT22;11312;51.464;6.968;2024-01-25T15:09:50;8.90;1.00
22288;DHT22;11312;51.464;6.968;2024-01-25T15:12:16;8.80;1.00
22288;DHT22;11312;51.464;6.968;2024-01-25T15:14:41;8.80;1.00
22288;DHT22;11312;51.464;6.968;2024-01-25T15:17:07;8.80;1.00
22288;DHT22;11312;51.464;6.968;2024-01-25T15:19:33;8.90;1.00
22288;DHT22;11312;51.464;6.968;2024-01-25T15:21:59;8.80;1.00
22288;DHT22;11312;51.464;6.968;2024-01-25T15:24:24;8.90;1.00
22288;DHT22;11312;51.464;6.968;2024-01-25T15:26:51;8.90;1.00
22288;DHT22;11312;51.464;6.968;2024-01-25T15:29:17;8.90;1.00
22288;DHT22;11312;51.464;6.968;2024-01-25T15:31:43;8.80;1.00
22288;DHT22;11312;51.464;6.968;2024-01-25T15:34:08;8.80;1.00
22288;DHT22;11312;51.464;6.968;2024-01-25T15:36:34;8.80;1.00
22288;DHT22;11312;51.464;6.968;2024-01-25T15:39:01;8.80;1.00
22288;DHT22;11312;51.464;6.968;2024-01-25T15:41:29;9.30;99.90
22288;DHT22;11312;51.464;6.968;2024-01-25T15:43:56;9.10;1.00
22288;DHT22;11312;51.464;6.968;2024-01-25T15:46:21;9.10;1.00